Time,TemperatureF,DewpointF,PressureIn,WindDirection,WindDirectionDegrees,WindSpeedMPH,WindSpeedGustMPH,Humidity,HourlyPrecipIn,Conditions,Clouds,dailyrainin,SoftwareType,DateUTC
2013-05-04 00:01:00,47.0,5.6,30.03,North,360,4.0,5.0,18,0.00,,,0.00,Weather View 32 v70,2013-05-04 06:01:00,
2013-05-04 00:06:00,47.0,5.6,30.03,North,360,4.0,5.0,18,0.00,,,0.00,Weather View 32 v70,2013-05-04 06:06:00,
2013-05-04 00:11:00,47.0,4.4,30.03,North,360,5.0,6.0,17,0.00,,,0.00,Weather View 32 v70,2013-05-04 06:11:00,
2013-05-04 00:16:00,47.0,5.6,30.03,North,360,0.0,6.0,18,0.00,,,0.00,Weather View 32 v70,2013-05-04 06:16:00,
2013-05-04 00:21:00,47.0,6.8,30.03,North,360,0.0,6.0,19,0.00,,,0.00,Weather View 32 v70,2013-05-04 06:21:00,
2013-05-04 00:26:00,46.0,8.2,30.03,East,90,5.0,6.0,21,0.00,,,0.00,Weather View 32 v70,2013-05-04 06:26:00,
2013-05-04 00:31:00,45.0,8.4,30.03,East,90,4.0,6.0,22,0.00,,,0.00,Weather View 32 v70,2013-05-04 06:31:00,
2013-05-04 00:36:00,45.0,9.4,30.03,East,90,3.0,6.0,23,0.00,,,0.00,Weather View 32 v70,2013-05-04 06:36:00,
2013-05-04 00:41:00,45.0,9.4,30.03,East,90,5.0,6.0,23,0.00,,,0.00,Weather View 32 v70,2013-05-04 06:41:00,
2013-05-04 00:46:00,44.0,7.5,30.03,East,90,6.0,7.0,22,0.00,,,0.00,Weather View 32 v70,2013-05-04 06:46:00,
2013-05-04 00:51:00,44.0,5.4,30.04,East,90,6.0,7.0,20,0.00,,,0.00,Weather View 32 v70,2013-05-04 06:51:00,
2013-05-04 00:56:00,44.0,5.4,30.04,East,90,5.0,8.0,20,0.00,,,0.00,Weather View 32 v70,2013-05-04 06:56:00,
2013-05-04 01:01:00,44.0,5.4,30.04,ENE,67,6.0,8.0,20,0.00,,,0.00,Weather View 32 v70,2013-05-04 07:01:00,
2013-05-04 01:06:00,44.0,7.5,30.04,ENE,67,7.0,8.0,22,0.00,,,0.00,Weather View 32 v70,2013-05-04 07:06:00,
2013-05-04 01:11:00,44.0,7.5,30.04,ENE,67,6.0,8.0,22,0.00,,,0.00,Weather View 32 v70,2013-05-04 07:11:00,
2013-05-04 01:16:00,43.0,7.7,30.04,ENE,67,4.0,8.0,23,0.00,,,0.00,Weather View 32 v70,2013-05-04 07:16:00,
2013-05-04 01:21:00,43.0,7.7,30.04,ENE,67,4.0,8.0,23,0.00,,,0.00,Weather View 32 v70,2013-05-04 07:21:00,
2013-05-04 01:26:00,43.0,7.7,30.04,ENE,67,3.0,8.0,23,0.00,,,0.00,Weather View 32 v70,2013-05-04 07:26:00,
2013-05-04 01:31:00,43.0,7.7,30.04,ENE,67,3.0,8.0,23,0.00,,,0.00,Weather View 32 v70,2013-05-04 07:31:00,
2013-05-04 01:36:00,43.0,8.6,30.04,ENE,67,2.0,8.0,24,0.00,,,0.00,Weather View 32 v70,2013-05-04 07:36:00,
2013-05-04 01:41:00,42.0,10.4,30.04,ENE,67,0.0,8.0,27,0.00,,,0.00,Weather View 32 v70,2013-05-04 07:41:00,
2013-05-04 01:46:00,42.0,10.4,30.04,ENE,67,0.0,8.0,27,0.00,,,0.00,Weather View 32 v70,2013-05-04 07:46:00,
2013-05-04 01:51:00,42.0,10.4,30.04,ENE,67,0.0,8.0,27,0.00,,,0.00,Weather View 32 v70,2013-05-04 07:51:00,
2013-05-04 01:56:00,41.0,10.3,30.04,ENE,67,0.0,8.0,28,0.00,,,0.00,Weather View 32 v70,2013-05-04 07:56:00,
2013-05-04 02:01:00,41.0,9.5,30.03,ENE,67,0.0,8.0,27,0.00,,,0.00,Weather View 32 v70,2013-05-04 08:01:00,
2013-05-04 02:06:00,40.0,11.0,30.03,ENE,67,0.0,8.0,30,0.00,,,0.00,Weather View 32 v70,2013-05-04 08:06:00,
2013-05-04 02:11:00,40.0,11.8,30.03,ENE,67,0.0,7.0,31,0.00,,,0.00,Weather View 32 v70,2013-05-04 08:11:00,
2013-05-04 02:16:00,39.0,10.2,30.03,ENE,67,0.0,5.0,30,0.00,,,0.00,Weather View 32 v70,2013-05-04 08:16:00,
2013-05-04 02:21:00,39.0,11.6,30.04,ENE,67,0.0,5.0,32,0.00,,,0.00,Weather View 32 v70,2013-05-04 08:21:00,
2013-05-04 02:26:00,38.0,10.7,30.04,ENE,67,0.0,5.0,32,0.00,,,0.00,Weather View 32 v70,2013-05-04 08:26:00,
2013-05-04 02:31:00,38.0,14.0,30.04,ENE,67,0.0,3.0,37,0.00,,,0.00,Weather View 32 v70,2013-05-04 08:31:00,
2013-05-04 02:36:00,37.0,13.1,30.04,ENE,67,3.0,3.0,37,0.00,,,0.00,Weather View 32 v70,2013-05-04 08:36:00,
2013-05-04 02:41:00,37.0,9.1,30.03,East,90,5.0,7.0,31,0.00,,,0.00,Weather View 32 v70,2013-05-04 08:41:00,
2013-05-04 02:46:00,38.0,10.0,30.03,ENE,67,6.0,7.0,31,0.00,,,0.00,Weather View 32 v70,2013-05-04 08:46:00,
2013-05-04 02:51:00,38.0,7.8,30.04,East,90,8.0,8.0,28,0.00,,,0.00,Weather View 32 v70,2013-05-04 08:51:00,
2013-05-04 02:56:00,38.0,5.3,30.04,ENE,67,6.0,10.0,25,0.00,,,0.00,Weather View 32 v70,2013-05-04 08:56:00,
2013-05-04 03:01:00,38.0,4.4,30.03,ENE,67,8.0,10.0,24,0.00,,,0.00,Weather View 32 v70,2013-05-04 09:01:00,
2013-05-04 03:06:00,38.0,4.4,30.03,East,90,6.0,10.0,24,0.00,,,0.00,Weather View 32 v70,2013-05-04 09:06:00,
2013-05-04 03:11:00,38.0,4.4,30.03,ENE,67,6.0,10.0,24,0.00,,,0.00,Weather View 32 v70,2013-05-04 09:11:00,
2013-05-04 03:16:00,38.0,4.4,30.03,ENE,67,4.0,10.0,24,0.00,,,0.00,Weather View 32 v70,2013-05-04 09:16:00,
2013-05-04 03:20:00,38.0,5.3,30.03,ENE,67,7.0,10.0,25,0.00,,,0.00,Weather View 32 v70,2013-05-04 09:20:00,
2013-05-04 03:26:00,38.0,5.3,30.03,ENE,67,6.0,10.0,25,0.00,,,0.00,Weather View 32 v70,2013-05-04 09:26:00,
2013-05-04 03:31:00,38.0,4.4,30.03,ENE,67,6.0,10.0,24,0.00,,,0.00,Weather View 32 v70,2013-05-04 09:31:00,
2013-05-04 03:36:00,38.0,3.4,30.03,ENE,67,6.0,10.0,23,0.00,,,0.00,Weather View 32 v70,2013-05-04 09:36:00,
2013-05-04 03:41:00,38.0,3.4,30.03,ENE,67,7.0,12.0,23,0.00,,,0.00,Weather View 32 v70,2013-05-04 09:41:00,
2013-05-04 03:46:00,38.0,4.4,30.03,East,90,7.0,12.0,24,0.00,,,0.00,Weather View 32 v70,2013-05-04 09:46:00,
2013-05-04 03:51:00,38.0,6.1,30.03,East,90,7.0,12.0,26,0.00,,,0.00,Weather View 32 v70,2013-05-04 09:51:00,
2013-05-04 03:55:00,38.0,6.9,30.03,East,90,6.0,12.0,27,0.00,,,0.00,Weather View 32 v70,2013-05-04 09:55:00,
2013-05-04 04:00:00,37.0,7.7,30.03,East,90,7.0,12.0,29,0.00,,,0.00,Weather View 32 v70,2013-05-04 10:00:00,
2013-05-04 04:06:00,37.0,8.4,30.03,East,90,4.0,12.0,30,0.00,,,0.00,Weather View 32 v70,2013-05-04 10:06:00,
2013-05-04 04:11:00,37.0,7.7,30.04,ENE,67,4.0,12.0,29,0.00,,,0.00,Weather View 32 v70,2013-05-04 10:11:00,
2013-05-04 04:16:00,36.0,6.8,30.04,ENE,67,6.0,12.0,29,0.00,,,0.00,Weather View 32 v70,2013-05-04 10:16:00,
2013-05-04 04:21:00,36.0,6.8,30.04,ENE,67,8.0,12.0,29,0.00,,,0.00,Weather View 32 v70,2013-05-04 10:21:00,
2013-05-04 04:26:00,36.0,6.0,30.04,ENE,67,7.0,12.0,28,0.00,,,0.00,Weather View 32 v70,2013-05-04 10:26:00,
2013-05-04 04:30:00,36.0,6.0,30.04,East,90,6.0,12.0,28,0.00,,,0.00,Weather View 32 v70,2013-05-04 10:30:00,
2013-05-04 04:36:00,36.0,6.8,30.04,East,90,8.0,12.0,29,0.00,,,0.00,Weather View 32 v70,2013-05-04 10:36:00,
2013-05-04 04:40:00,36.0,6.8,30.04,ENE,67,5.0,12.0,29,0.00,,,0.00,Weather View 32 v70,2013-05-04 10:40:00,
2013-05-04 04:45:00,36.0,5.2,30.04,East,90,8.0,11.0,27,0.00,,,0.00,Weather View 32 v70,2013-05-04 10:45:00,
2013-05-04 04:50:00,37.0,6.9,30.04,East,90,7.0,10.0,28,0.00,,,0.00,Weather View 32 v70,2013-05-04 10:50:00,
2013-05-04 04:55:00,37.0,6.9,30.04,ENE,67,7.0,10.0,28,0.00,,,0.00,Weather View 32 v70,2013-05-04 10:55:00,
2013-05-04 05:00:00,37.0,7.7,30.04,ENE,67,7.0,10.0,29,0.00,,,0.00,Weather View 32 v70,2013-05-04 11:00:00,
2013-05-04 05:05:00,37.0,7.7,30.04,East,90,5.0,10.0,29,0.00,,,0.00,Weather View 32 v70,2013-05-04 11:05:00,
2013-05-04 05:10:00,36.0,6.8,30.04,East,90,5.0,10.0,29,0.00,,,0.00,Weather View 32 v70,2013-05-04 11:10:00,
2013-05-04 05:15:00,36.0,8.3,30.04,East,90,6.0,10.0,31,0.00,,,0.00,Weather View 32 v70,2013-05-04 11:15:00,
2013-05-04 05:20:00,36.0,9.0,30.04,East,90,5.0,10.0,32,0.00,,,0.00,Weather View 32 v70,2013-05-04 11:20:00,
2013-05-04 05:25:00,36.0,9.7,30.04,East,90,5.0,10.0,33,0.00,,,0.00,Weather View 32 v70,2013-05-04 11:25:00,
2013-05-04 05:30:00,35.0,9.4,30.04,East,90,6.0,10.0,34,0.00,,,0.00,Weather View 32 v70,2013-05-04 11:30:00,
2013-05-04 05:35:00,35.0,10.1,30.04,East,90,9.0,10.0,35,0.00,,,0.00,Weather View 32 v70,2013-05-04 11:35:00,
2013-05-04 05:40:00,35.0,9.4,30.04,ENE,67,7.0,10.0,34,0.00,,,0.00,Weather View 32 v70,2013-05-04 11:40:00,
2013-05-04 05:46:00,35.0,10.1,30.04,East,90,7.0,10.0,35,0.00,,,0.00,Weather View 32 v70,2013-05-04 11:46:00,
2013-05-04 05:51:00,35.0,9.4,30.04,East,90,7.0,10.0,34,0.00,,,0.00,Weather View 32 v70,2013-05-04 11:51:00,
2013-05-04 05:56:00,35.0,9.4,30.04,ENE,67,7.0,10.0,34,0.00,,,0.00,Weather View 32 v70,2013-05-04 11:56:00,
2013-05-04 06:01:00,35.0,8.8,30.04,East,90,6.0,10.0,33,0.00,,,0.00,Weather View 32 v70,2013-05-04 12:01:00,
2013-05-04 06:06:00,35.0,9.4,30.04,East,90,6.0,10.0,34,0.00,,,0.00,Weather View 32 v70,2013-05-04 12:06:00,
2013-05-04 06:11:00,35.0,9.4,30.04,East,90,6.0,10.0,34,0.00,,,0.00,Weather View 32 v70,2013-05-04 12:11:00,
2013-05-04 06:16:00,35.0,10.7,30.04,East,90,7.0,10.0,36,0.00,,,0.00,Weather View 32 v70,2013-05-04 12:16:00,
2013-05-04 06:21:00,34.0,9.2,30.04,East,90,7.0,10.0,35,0.00,,,0.00,Weather View 32 v70,2013-05-04 12:21:00,
2013-05-04 06:26:00,34.0,9.2,30.04,East,90,6.0,10.0,35,0.00,,,0.00,Weather View 32 v70,2013-05-04 12:26:00,
2013-05-04 06:31:00,35.0,10.1,30.05,East,90,5.0,10.0,35,0.00,,,0.00,Weather View 32 v70,2013-05-04 12:31:00,
2013-05-04 06:37:00,35.0,9.4,30.05,East,90,5.0,10.0,34,0.00,,,0.00,Weather View 32 v70,2013-05-04 12:37:00,
2013-05-04 06:42:00,35.0,9.4,30.05,East,90,4.0,10.0,34,0.00,,,0.00,Weather View 32 v70,2013-05-04 12:42:00,
2013-05-04 06:47:00,35.0,8.1,30.05,East,90,7.0,10.0,32,0.00,,,0.00,Weather View 32 v70,2013-05-04 12:47:00,
2013-05-04 06:52:00,36.0,8.3,30.05,East,90,5.0,10.0,31,0.00,,,0.00,Weather View 32 v70,2013-05-04 12:52:00,
2013-05-04 06:57:00,37.0,7.7,30.05,ENE,67,7.0,10.0,29,0.00,,,0.00,Weather View 32 v70,2013-05-04 12:57:00,
2013-05-04 07:02:00,37.0,7.7,30.05,ENE,67,7.0,9.0,29,0.00,,,0.00,Weather View 32 v70,2013-05-04 13:02:00,
2013-05-04 07:03:00,38.0,8.5,30.05,East,90,6.0,9.0,29,0.00,,,0.00,Weather View 32 v70,2013-05-04 13:03:00,
2013-05-04 07:08:00,38.0,6.9,30.05,East,90,7.0,9.0,27,0.00,,,0.00,Weather View 32 v70,2013-05-04 13:08:00,
2013-05-04 07:13:00,39.0,7.8,30.05,East,90,6.0,9.0,27,0.00,,,0.00,Weather View 32 v70,2013-05-04 13:13:00,
2013-05-04 07:18:00,40.0,7.8,30.05,East,90,5.0,9.0,26,0.00,,,0.00,Weather View 32 v70,2013-05-04 13:18:00,
2013-05-04 07:23:00,40.0,7.0,30.06,East,90,7.0,9.0,25,0.00,,,0.00,Weather View 32 v70,2013-05-04 13:23:00,
2013-05-04 07:28:00,41.0,7.8,30.06,East,90,6.0,10.0,25,0.00,,,0.00,Weather View 32 v70,2013-05-04 13:28:00,
2013-05-04 07:33:00,42.0,8.7,30.05,ESE,112,9.0,10.0,25,0.00,,,0.00,Weather View 32 v70,2013-05-04 13:33:00,
2013-05-04 07:38:00,42.0,8.7,30.05,East,90,6.0,10.0,25,0.00,,,0.00,Weather View 32 v70,2013-05-04 13:38:00,
2013-05-04 07:43:00,43.0,9.5,30.05,East,90,9.0,10.0,25,0.00,,,0.00,Weather View 32 v70,2013-05-04 13:43:00,
2013-05-04 07:48:00,43.0,9.5,30.05,East,90,7.0,10.0,25,0.00,,,0.00,Weather View 32 v70,2013-05-04 13:48:00,
2013-05-04 07:53:00,44.0,9.5,30.05,East,90,9.0,11.0,24,0.00,,,0.00,Weather View 32 v70,2013-05-04 13:53:00,
2013-05-04 07:58:00,45.0,9.4,30.05,East,90,9.0,11.0,23,0.00,,,0.00,Weather View 32 v70,2013-05-04 13:58:00,
2013-05-04 08:04:00,45.0,9.4,30.05,East,90,8.0,12.0,23,0.00,,,0.00,Weather View 32 v70,2013-05-04 14:04:00,
2013-05-04 08:09:00,46.0,9.2,30.04,East,90,10.0,13.0,22,0.00,,,0.00,Weather View 32 v70,2013-05-04 14:09:00,
2013-05-04 08:14:00,46.0,9.2,30.04,ENE,67,9.0,15.0,22,0.00,,,0.00,Weather View 32 v70,2013-05-04 14:14:00,
2013-05-04 08:19:00,47.0,10.1,30.04,East,90,12.0,15.0,22,0.00,,,0.00,Weather View 32 v70,2013-05-04 14:19:00,
2013-05-04 08:24:00,48.0,9.9,30.04,East,90,8.0,15.0,21,0.00,,,0.00,Weather View 32 v70,2013-05-04 14:24:00,
2013-05-04 08:29:00,49.0,10.7,30.04,East,90,5.0,15.0,21,0.00,,,0.00,Weather View 32 v70,2013-05-04 14:29:00,
2013-05-04 08:34:00,49.0,9.6,30.04,ESE,112,9.0,15.0,20,0.00,,,0.00,Weather View 32 v70,2013-05-04 14:34:00,
2013-05-04 08:39:00,50.0,9.3,30.03,East,90,8.0,15.0,19,0.00,,,0.00,Weather View 32 v70,2013-05-04 14:39:00,
2013-05-04 08:44:00,51.0,12.4,30.03,East,90,7.0,15.0,21,0.00,,,0.00,Weather View 32 v70,2013-05-04 14:44:00,
2013-05-04 08:49:00,51.0,10.1,30.03,East,90,6.0,15.0,19,0.00,,,0.00,Weather View 32 v70,2013-05-04 14:49:00,
2013-05-04 08:54:00,52.0,13.2,30.03,SSE,157,5.0,15.0,21,0.00,,,0.00,Weather View 32 v70,2013-05-04 14:54:00,
2013-05-04 08:59:00,53.0,11.8,30.03,SE,135,5.0,15.0,19,0.00,,,0.00,Weather View 32 v70,2013-05-04 14:59:00,
2013-05-04 09:04:00,54.0,12.6,30.03,SE,135,4.0,15.0,19,0.00,,,0.00,Weather View 32 v70,2013-05-04 15:04:00,
2013-05-04 09:09:00,55.0,10.9,30.03,SE,135,2.0,15.0,17,0.00,,,0.00,Weather View 32 v70,2013-05-04 15:09:00,
2013-05-04 09:14:00,56.0,11.7,30.03,SE,135,7.0,15.0,17,0.00,,,0.00,Weather View 32 v70,2013-05-04 15:14:00,
2013-05-04 09:19:00,57.0,11.2,30.02,East,90,4.0,15.0,16,0.00,,,0.00,Weather View 32 v70,2013-05-04 15:19:00,
2013-05-04 09:24:00,57.0,9.7,30.02,ESE,112,11.0,13.0,15,0.00,,,0.00,Weather View 32 v70,2013-05-04 15:24:00,
2013-05-04 09:29:00,57.0,9.7,30.02,East,90,3.0,13.0,15,0.00,,,0.00,Weather View 32 v70,2013-05-04 15:29:00,
2013-05-04 09:34:00,58.0,9.0,30.02,East,90,10.0,14.0,14,0.00,,,0.00,Weather View 32 v70,2013-05-04 15:34:00,
2013-05-04 09:39:00,59.0,8.1,30.02,East,90,8.0,14.0,13,0.00,,,0.00,Weather View 32 v70,2013-05-04 15:39:00,
2013-05-04 09:44:00,59.0,9.8,30.02,East,90,11.0,16.0,14,0.00,,,0.00,Weather View 32 v70,2013-05-04 15:44:00,
2013-05-04 09:49:00,59.0,9.8,30.02,ESE,112,10.0,16.0,14,0.00,,,0.00,Weather View 32 v70,2013-05-04 15:49:00,
2013-05-04 09:55:00,59.0,8.1,30.02,East,90,12.0,16.0,13,0.00,,,0.00,Weather View 32 v70,2013-05-04 15:55:00,
2013-05-04 10:00:00,59.0,8.1,30.01,NE,45,10.0,17.0,13,0.00,,,0.00,Weather View 32 v70,2013-05-04 16:00:00,
2013-05-04 10:05:00,59.0,8.1,30.01,ENE,67,6.0,17.0,13,0.00,,,0.00,Weather View 32 v70,2013-05-04 16:05:00,
2013-05-04 10:10:00,60.0,7.1,30.01,East,90,10.0,17.0,12,0.00,,,0.00,Weather View 32 v70,2013-05-04 16:10:00,
2013-05-04 10:15:00,60.0,7.1,30.01,East,90,8.0,17.0,12,0.00,,,0.00,Weather View 32 v70,2013-05-04 16:15:00,
2013-05-04 10:20:00,61.0,7.9,30.00,East,90,8.0,17.0,12,0.00,,,0.00,Weather View 32 v70,2013-05-04 16:20:00,
2013-05-04 10:25:00,61.0,7.9,30.00,East,90,6.0,17.0,12,0.00,,,0.00,Weather View 32 v70,2013-05-04 16:25:00,
2013-05-04 10:30:00,62.0,4.7,30.00,NE,45,11.0,17.0,10,0.00,,,0.00,Weather View 32 v70,2013-05-04 16:30:00,
2013-05-04 10:35:00,62.0,6.8,30.00,East,90,8.0,17.0,11,0.00,,,0.00,Weather View 32 v70,2013-05-04 16:35:00,
2013-05-04 10:40:00,62.0,4.7,30.00,East,90,11.0,17.0,10,0.00,,,0.00,Weather View 32 v70,2013-05-04 16:40:00,
2013-05-04 10:45:00,63.0,7.6,30.00,ESE,112,7.0,17.0,11,0.00,,,0.00,Weather View 32 v70,2013-05-04 16:45:00,
2013-05-04 10:50:00,63.0,7.6,30.00,East,90,6.0,17.0,11,0.00,,,0.00,Weather View 32 v70,2013-05-04 16:50:00,
2013-05-04 10:55:00,64.0,6.2,30.00,ESE,112,5.0,17.0,10,0.00,,,0.00,Weather View 32 v70,2013-05-04 16:55:00,
2013-05-04 11:00:00,64.0,8.3,29.99,NE,45,7.0,17.0,11,0.00,,,0.00,Weather View 32 v70,2013-05-04 17:00:00,
2013-05-04 11:05:00,64.0,8.3,29.99,SE,135,7.0,17.0,11,0.00,,,0.00,Weather View 32 v70,2013-05-04 17:05:00,
2013-05-04 11:10:00,65.0,9.1,29.99,East,90,6.0,17.0,11,0.00,,,0.00,Weather View 32 v70,2013-05-04 17:10:00,
2013-05-04 11:15:00,65.0,4.7,29.99,East,90,9.0,17.0,9,0.00,,,0.00,Weather View 32 v70,2013-05-04 17:15:00,
2013-05-04 11:20:00,65.0,7.0,29.98,SE,135,3.0,17.0,10,0.00,,,0.00,Weather View 32 v70,2013-05-04 17:20:00,
2013-05-04 11:25:00,66.0,5.4,29.98,South,180,6.0,16.0,9,0.00,,,0.00,Weather View 32 v70,2013-05-04 17:25:00,
2013-05-04 11:30:00,66.0,5.4,29.98,South,180,5.0,16.0,9,0.00,,,0.00,Weather View 32 v70,2013-05-04 17:30:00,
2013-05-04 11:35:00,66.0,7.8,29.98,East,90,14.0,16.0,10,0.00,,,0.00,Weather View 32 v70,2013-05-04 17:35:00,
2013-05-04 11:39:00,66.0,5.4,29.98,ENE,67,6.0,16.0,9,0.00,,,0.00,Weather View 32 v70,2013-05-04 17:39:00,
2013-05-04 11:44:00,67.0,6.2,29.98,East,90,7.0,16.0,9,0.00,,,0.00,Weather View 32 v70,2013-05-04 17:44:00,
2013-05-04 11:49:00,67.0,6.2,29.97,SE,135,6.0,16.0,9,0.00,,,0.00,Weather View 32 v70,2013-05-04 17:49:00,
2013-05-04 11:54:00,67.0,3.6,29.97,SE,135,4.0,15.0,8,0.00,,,0.00,Weather View 32 v70,2013-05-04 17:54:00,
2013-05-04 11:59:00,68.0,4.4,29.97,SSE,157,7.0,15.0,8,0.00,,,0.00,Weather View 32 v70,2013-05-04 17:59:00,
2013-05-04 12:04:00,68.0,7.0,29.97,SE,135,9.0,15.0,9,0.00,,,0.00,Weather View 32 v70,2013-05-04 18:04:00,
2013-05-04 12:09:00,68.0,4.4,29.97,SE,135,6.0,15.0,8,0.00,,,0.00,Weather View 32 v70,2013-05-04 18:09:00,
2013-05-04 12:14:00,68.0,4.4,29.97,SE,135,2.0,15.0,8,0.00,,,0.00,Weather View 32 v70,2013-05-04 18:14:00,
2013-05-04 12:19:00,69.0,2.2,29.96,South,180,5.0,15.0,7,0.00,,,0.00,Weather View 32 v70,2013-05-04 18:19:00,
2013-05-04 12:24:00,69.0,5.1,29.96,SE,135,5.0,15.0,8,0.00,,,0.00,Weather View 32 v70,2013-05-04 18:24:00,
2013-05-04 12:29:00,70.0,3.0,29.96,ENE,67,6.0,15.0,7,0.00,,,0.00,Weather View 32 v70,2013-05-04 18:29:00,
2013-05-04 12:34:00,69.0,5.1,29.96,SE,135,5.0,15.0,8,0.00,,,0.00,Weather View 32 v70,2013-05-04 18:34:00,
2013-05-04 12:39:00,69.0,5.1,29.95,South,180,6.0,17.0,8,0.00,,,0.00,Weather View 32 v70,2013-05-04 18:39:00,
2013-05-04 12:44:00,69.0,5.1,29.95,East,90,5.0,17.0,8,0.00,,,0.00,Weather View 32 v70,2013-05-04 18:44:00,
2013-05-04 12:49:00,70.0,5.9,29.95,NE,45,1.0,17.0,8,0.00,,,0.00,Weather View 32 v70,2013-05-04 18:49:00,
2013-05-04 12:54:00,70.0,5.9,29.95,ENE,67,7.0,17.0,8,0.00,,,0.00,Weather View 32 v70,2013-05-04 18:54:00,
2013-05-04 12:59:00,71.0,6.6,29.94,East,90,10.0,17.0,8,0.00,,,0.00,Weather View 32 v70,2013-05-04 18:59:00,
2013-05-04 13:04:00,71.0,6.6,29.94,SE,135,5.0,17.0,8,0.00,,,0.00,Weather View 32 v70,2013-05-04 19:04:00,
2013-05-04 13:09:00,72.0,4.4,29.94,SE,135,5.0,17.0,7,0.00,,,0.00,Weather View 32 v70,2013-05-04 19:09:00,
2013-05-04 13:14:00,71.0,3.7,29.94,NE,45,4.0,17.0,7,0.00,,,0.00,Weather View 32 v70,2013-05-04 19:14:00,
2013-05-04 13:19:00,72.0,4.4,29.93,SSE,157,3.0,17.0,7,0.00,,,0.00,Weather View 32 v70,2013-05-04 19:19:00,
2013-05-04 13:24:00,72.0,4.4,29.93,SE,135,5.0,17.0,7,0.00,,,0.00,Weather View 32 v70,2013-05-04 19:24:00,
2013-05-04 13:29:00,73.0,1.8,29.93,South,180,3.0,17.0,6,0.00,,,0.00,Weather View 32 v70,2013-05-04 19:29:00,
2013-05-04 13:34:00,73.0,5.2,29.93,SW,225,5.0,17.0,7,0.00,,,0.00,Weather View 32 v70,2013-05-04 19:34:00,
2013-05-04 13:39:00,73.0,1.8,29.92,SE,135,6.0,12.0,6,0.00,,,0.00,Weather View 32 v70,2013-05-04 19:39:00,
2013-05-04 13:44:00,73.0,1.8,29.92,SW,225,5.0,12.0,6,0.00,,,0.00,Weather View 32 v70,2013-05-04 19:44:00,
2013-05-04 13:49:00,74.0,2.5,29.92,West,270,6.0,13.0,6,0.00,,,0.00,Weather View 32 v70,2013-05-04 19:49:00,
2013-05-04 13:54:00,74.0,5.9,29.92,West,270,6.0,13.0,7,0.00,,,0.00,Weather View 32 v70,2013-05-04 19:54:00,
2013-05-04 13:59:00,74.0,2.5,29.92,South,180,7.0,13.0,6,0.00,,,0.00,Weather View 32 v70,2013-05-04 19:59:00,
2013-05-04 14:04:00,74.0,2.5,29.92,NE,45,4.0,13.0,6,0.00,,,0.00,Weather View 32 v70,2013-05-04 20:04:00,
2013-05-04 14:09:00,74.0,2.5,29.91,South,180,3.0,13.0,6,0.00,,,0.00,Weather View 32 v70,2013-05-04 20:09:00,
2013-05-04 14:14:00,74.0,2.5,29.91,East,90,3.0,13.0,6,0.00,,,0.00,Weather View 32 v70,2013-05-04 20:14:00,
2013-05-04 14:19:00,75.0,3.3,29.91,East,90,7.0,13.0,6,0.00,,,0.00,Weather View 32 v70,2013-05-04 20:19:00,
2013-05-04 14:24:00,75.0,3.3,29.91,SE,135,2.0,14.0,6,0.00,,,0.00,Weather View 32 v70,2013-05-04 20:24:00,
2013-05-04 14:29:00,75.0,-0.6,29.90,SE,135,8.0,16.0,5,0.00,,,0.00,Weather View 32 v70,2013-05-04 20:29:00,
2013-05-04 14:34:00,75.0,-5.3,29.90,South,180,7.0,16.0,4,0.00,,,0.00,Weather View 32 v70,2013-05-04 20:34:00,
2013-05-04 14:39:00,75.0,-0.6,29.90,East,90,7.0,16.0,5,0.00,,,0.00,Weather View 32 v70,2013-05-04 20:39:00,
2013-05-04 14:44:00,75.0,3.3,29.90,South,180,0.0,16.0,6,0.00,,,0.00,Weather View 32 v70,2013-05-04 20:44:00,
2013-05-04 14:49:00,76.0,-4.6,29.89,East,90,5.0,16.0,4,0.00,,,0.00,Weather View 32 v70,2013-05-04 20:49:00,
2013-05-04 14:54:00,76.0,0.1,29.89,East,90,9.0,16.0,5,0.00,,,0.00,Weather View 32 v70,2013-05-04 20:54:00,
2013-05-04 14:59:00,76.0,-4.6,29.88,SE,135,5.0,16.0,4,0.00,,,0.00,Weather View 32 v70,2013-05-04 20:59:00,
2013-05-04 15:04:00,75.0,3.3,29.88,SW,225,3.0,16.0,6,0.00,,,0.00,Weather View 32 v70,2013-05-04 21:04:00,
2013-05-04 15:09:00,76.0,0.1,29.88,SE,135,8.0,16.0,5,0.00,,,0.00,Weather View 32 v70,2013-05-04 21:09:00,
2013-05-04 15:14:00,75.0,-0.6,29.88,East,90,4.0,16.0,5,0.00,,,0.00,Weather View 32 v70,2013-05-04 21:14:00,
2013-05-04 15:19:00,75.0,3.3,29.88,East,90,9.0,16.0,6,0.00,,,0.00,Weather View 32 v70,2013-05-04 21:19:00,
2013-05-04 15:24:00,74.0,2.5,29.88,North,360,10.0,16.0,6,0.00,,,0.00,Weather View 32 v70,2013-05-04 21:24:00,
2013-05-04 15:29:00,72.0,1.1,29.88,North,360,3.0,15.0,6,0.00,,,0.00,Weather View 32 v70,2013-05-04 21:29:00,
2013-05-04 15:34:00,73.0,5.2,29.88,ENE,67,19.0,19.0,7,0.00,,,0.00,Weather View 32 v70,2013-05-04 21:34:00,
2013-05-04 15:39:00,73.0,1.8,29.87,SW,225,0.0,22.0,6,0.00,,,0.00,Weather View 32 v70,2013-05-04 21:39:00,
2013-05-04 15:44:00,74.0,2.5,29.87,SE,135,4.0,22.0,6,0.00,,,0.00,Weather View 32 v70,2013-05-04 21:44:00,
2013-05-04 15:49:00,74.0,-1.3,29.87,East,90,11.0,22.0,5,0.00,,,0.00,Weather View 32 v70,2013-05-04 21:49:00,
2013-05-04 15:54:00,74.0,-1.3,29.87,SSE,157,10.0,22.0,5,0.00,,,0.00,Weather View 32 v70,2013-05-04 21:54:00,
2013-05-04 15:59:00,74.0,2.5,29.86,South,180,5.0,22.0,6,0.00,,,0.00,Weather View 32 v70,2013-05-04 21:59:00,
2013-05-04 16:04:00,74.0,-1.3,29.86,SSE,157,11.0,22.0,5,0.00,,,0.00,Weather View 32 v70,2013-05-04 22:04:00,
2013-05-04 16:09:00,74.0,-1.3,29.87,ESE,112,1.0,22.0,5,0.00,,,0.00,Weather View 32 v70,2013-05-04 22:09:00,
2013-05-04 16:14:00,74.0,-1.3,29.87,SE,135,9.0,22.0,5,0.00,,,0.00,Weather View 32 v70,2013-05-04 22:14:00,
2013-05-04 16:19:00,75.0,-0.6,29.86,NE,45,6.0,22.0,5,0.00,,,0.00,Weather View 32 v70,2013-05-04 22:19:00,
2013-05-04 16:24:00,75.0,-0.6,29.86,East,90,2.0,22.0,5,0.00,,,0.00,Weather View 32 v70,2013-05-04 22:24:00,
2013-05-04 16:29:00,76.0,4.0,29.86,SSW,202,10.0,22.0,6,0.00,,,0.00,Weather View 32 v70,2013-05-04 22:29:00,
2013-05-04 16:34:00,75.0,-5.3,29.86,South,180,8.0,22.0,4,0.00,,,0.00,Weather View 32 v70,2013-05-04 22:34:00,
2013-05-04 16:39:00,76.0,0.1,29.85,South,180,7.0,17.0,5,0.00,,,0.00,Weather View 32 v70,2013-05-04 22:39:00,
2013-05-04 16:44:00,75.0,-0.6,29.85,South,180,14.0,17.0,5,0.00,,,0.00,Weather View 32 v70,2013-05-04 22:44:00,
2013-05-04 16:49:00,76.0,4.0,29.85,SW,225,9.0,19.0,6,0.00,,,0.00,Weather View 32 v70,2013-05-04 22:49:00,
2013-05-04 16:54:00,76.0,4.0,29.85,WSW,247,8.0,19.0,6,0.00,,,0.00,Weather View 32 v70,2013-05-04 22:54:00,
2013-05-04 16:59:00,76.0,4.0,29.84,NW,315,10.0,19.0,6,0.00,,,0.00,Weather View 32 v70,2013-05-04 22:59:00,
2013-05-04 17:04:00,75.0,-0.6,29.84,SSW,202,10.0,19.0,5,0.00,,,0.00,Weather View 32 v70,2013-05-04 23:04:00,
2013-05-04 17:09:00,76.0,4.0,29.85,West,270,4.0,19.0,6,0.00,,,0.00,Weather View 32 v70,2013-05-04 23:09:00,
2013-05-04 17:14:00,76.0,4.0,29.85,South,180,7.0,19.0,6,0.00,,,0.00,Weather View 32 v70,2013-05-04 23:14:00,
2013-05-04 17:19:00,76.0,4.0,29.85,West,270,5.0,19.0,6,0.00,,,0.00,Weather View 32 v70,2013-05-04 23:19:00,
2013-05-04 17:24:00,76.0,0.1,29.85,SW,225,10.0,19.0,5,0.00,,,0.00,Weather View 32 v70,2013-05-04 23:24:00,
2013-05-04 17:29:00,76.0,0.1,29.85,SE,135,9.0,19.0,5,0.00,,,0.00,Weather View 32 v70,2013-05-04 23:29:00,
2013-05-04 17:34:00,75.0,-0.6,29.85,SSE,157,4.0,19.0,5,0.00,,,0.00,Weather View 32 v70,2013-05-04 23:34:00,
2013-05-04 17:39:00,75.0,-5.3,29.85,South,180,5.0,19.0,4,0.00,,,0.00,Weather View 32 v70,2013-05-04 23:39:00,
2013-05-04 17:44:00,75.0,-0.6,29.85,SW,225,10.0,19.0,5,0.00,,,0.00,Weather View 32 v70,2013-05-04 23:44:00,
2013-05-04 17:49:00,76.0,4.0,29.84,WSW,247,5.0,15.0,6,0.00,,,0.00,Weather View 32 v70,2013-05-04 23:49:00,
2013-05-04 17:54:00,76.0,-4.6,29.84,South,180,9.0,15.0,4,0.00,,,0.00,Weather View 32 v70,2013-05-04 23:54:00,
2013-05-04 17:59:00,76.0,-4.6,29.84,South,180,6.0,15.0,4,0.00,,,0.00,Weather View 32 v70,2013-05-04 23:59:00,
2013-05-04 18:06:00,76.0,-4.6,29.84,South,180,3.0,15.0,4,0.00,,,0.00,Weather View 32 v70,2013-05-05 00:06:00,
2013-05-04 18:11:00,74.0,-1.3,29.85,SE,135,4.0,14.0,5,0.00,,,0.00,Weather View 32 v70,2013-05-05 00:11:00,
2013-05-04 18:16:00,74.0,-1.3,29.85,SW,225,2.0,14.0,5,0.00,,,0.00,Weather View 32 v70,2013-05-05 00:16:00,
2013-05-04 18:21:00,74.0,-1.3,29.84,South,180,3.0,14.0,5,0.00,,,0.00,Weather View 32 v70,2013-05-05 00:21:00,
2013-05-04 18:26:00,74.0,-1.3,29.84,SE,135,6.0,14.0,5,0.00,,,0.00,Weather View 32 v70,2013-05-05 00:26:00,
2013-05-04 18:31:00,74.0,-1.3,29.84,SSW,202,4.0,14.0,5,0.00,,,0.00,Weather View 32 v70,2013-05-05 00:31:00,
2013-05-04 18:36:00,74.0,2.5,29.84,SW,225,2.0,14.0,6,0.00,,,0.00,Weather View 32 v70,2013-05-05 00:36:00,
2013-05-04 18:41:00,74.0,-1.3,29.84,SW,225,0.0,14.0,5,0.00,,,0.00,Weather View 32 v70,2013-05-05 00:41:00,
2013-05-04 18:46:00,74.0,2.5,29.84,SW,225,3.0,14.0,6,0.00,,,0.00,Weather View 32 v70,2013-05-05 00:46:00,
2013-05-04 18:51:00,74.0,2.5,29.85,SW,225,4.0,11.0,6,0.00,,,0.00,Weather View 32 v70,2013-05-05 00:51:00,
2013-05-04 18:56:00,73.0,1.8,29.85,SE,135,4.0,11.0,6,0.00,,,0.00,Weather View 32 v70,2013-05-05 00:56:00,
2013-05-04 19:01:00,73.0,1.8,29.85,South,180,8.0,11.0,6,0.00,,,0.00,Weather View 32 v70,2013-05-05 01:01:00,
2013-05-04 19:06:00,72.0,1.1,29.85,SSE,157,6.0,11.0,6,0.00,,,0.00,Weather View 32 v70,2013-05-05 01:06:00,
2013-05-04 19:11:00,71.0,0.4,29.85,South,180,7.0,11.0,6,0.00,,,0.00,Weather View 32 v70,2013-05-05 01:11:00,
2013-05-04 19:16:00,71.0,0.4,29.85,SE,135,6.0,13.0,6,0.00,,,0.00,Weather View 32 v70,2013-05-05 01:16:00,
2013-05-04 19:21:00,71.0,0.4,29.86,ESE,112,3.0,13.0,6,0.00,,,0.00,Weather View 32 v70,2013-05-05 01:21:00,
2013-05-04 19:26:00,71.0,0.4,29.86,East,90,6.0,13.0,6,0.00,,,0.00,Weather View 32 v70,2013-05-05 01:26:00,
2013-05-04 19:31:00,71.0,0.4,29.85,East,90,1.0,13.0,6,0.00,,,0.00,Weather View 32 v70,2013-05-05 01:31:00,
2013-05-04 19:36:00,71.0,0.4,29.85,SE,135,5.0,13.0,6,0.00,,,0.00,Weather View 32 v70,2013-05-05 01:36:00,
2013-05-04 19:41:00,71.0,0.4,29.85,East,90,4.0,13.0,6,0.00,,,0.00,Weather View 32 v70,2013-05-05 01:41:00,
2013-05-04 19:46:00,70.0,3.0,29.85,SE,135,3.0,13.0,7,0.00,,,0.00,Weather View 32 v70,2013-05-05 01:46:00,
2013-05-04 19:51:00,70.0,-0.3,29.86,SE,135,6.0,13.0,6,0.00,,,0.00,Weather View 32 v70,2013-05-05 01:51:00,
2013-05-04 19:56:00,70.0,-0.3,29.86,SE,135,3.0,13.0,6,0.00,,,0.00,Weather View 32 v70,2013-05-05 01:56:00,
2013-05-04 20:01:00,70.0,3.0,29.86,SE,135,3.0,13.0,7,0.00,,,0.00,Weather View 32 v70,2013-05-05 02:01:00,
2013-05-04 20:06:00,69.0,2.2,29.86,SE,135,7.0,13.0,7,0.00,,,0.00,Weather View 32 v70,2013-05-05 02:06:00,
2013-05-04 20:11:00,69.0,2.2,29.87,SE,135,8.0,13.0,7,0.00,,,0.00,Weather View 32 v70,2013-05-05 02:11:00,
2013-05-04 20:16:00,69.0,5.1,29.87,East,90,13.0,13.0,8,0.00,,,0.00,Weather View 32 v70,2013-05-05 02:16:00,
2013-05-04 20:21:00,69.0,5.1,29.87,South,180,9.0,13.0,8,0.00,,,0.00,Weather View 32 v70,2013-05-05 02:21:00,
2013-05-04 20:26:00,68.0,4.4,29.87,SE,135,5.0,14.0,8,0.00,,,0.00,Weather View 32 v70,2013-05-05 02:26:00,
2013-05-04 20:31:00,68.0,4.4,29.87,SE,135,11.0,17.0,8,0.00,,,0.00,Weather View 32 v70,2013-05-05 02:31:00,
2013-05-04 20:36:00,68.0,7.0,29.87,SE,135,10.0,17.0,9,0.00,,,0.00,Weather View 32 v70,2013-05-05 02:36:00,
2013-05-04 20:41:00,68.0,7.0,29.88,SE,135,5.0,17.0,9,0.00,,,0.00,Weather View 32 v70,2013-05-05 02:41:00,
2013-05-04 20:46:00,67.0,6.2,29.88,SE,135,6.0,17.0,9,0.00,,,0.00,Weather View 32 v70,2013-05-05 02:46:00,
2013-05-04 20:51:00,67.0,8.5,29.88,ESE,112,4.0,17.0,10,0.00,,,0.00,Weather View 32 v70,2013-05-05 02:51:00,
2013-05-04 20:56:00,67.0,10.7,29.88,SE,135,8.0,17.0,11,0.00,,,0.00,Weather View 32 v70,2013-05-05 02:56:00,
2013-05-04 21:01:00,66.0,9.9,29.89,SE,135,5.0,17.0,11,0.00,,,0.00,Weather View 32 v70,2013-05-05 03:01:00,
2013-05-04 21:06:00,66.0,9.9,29.89,SE,135,6.0,17.0,11,0.00,,,0.00,Weather View 32 v70,2013-05-05 03:06:00,
2013-05-04 21:11:00,66.0,7.8,29.90,SE,135,11.0,17.0,10,0.00,,,0.00,Weather View 32 v70,2013-05-05 03:11:00,
2013-05-04 21:16:00,66.0,7.8,29.90,SE,135,12.0,20.0,10,0.00,,,0.00,Weather View 32 v70,2013-05-05 03:16:00,
2013-05-04 21:22:00,67.0,8.5,29.90,SE,135,10.0,20.0,10,0.00,,,0.00,Weather View 32 v70,2013-05-05 03:22:00,
2013-05-04 21:27:00,66.0,7.8,29.90,SE,135,16.0,20.0,10,0.00,,,0.00,Weather View 32 v70,2013-05-05 03:27:00,
2013-05-04 21:32:00,66.0,7.8,29.90,SSE,157,10.0,20.0,10,0.00,,,0.00,Weather View 32 v70,2013-05-05 03:32:00,
2013-05-04 21:37:00,66.0,7.8,29.90,SE,135,11.0,23.0,10,0.00,,,0.00,Weather View 32 v70,2013-05-05 03:37:00,
2013-05-04 21:43:00,66.0,7.8,29.90,SE,135,8.0,23.0,10,0.00,,,0.00,Weather View 32 v70,2013-05-05 03:43:00,
2013-05-04 21:49:00,66.0,7.8,29.90,South,180,10.0,24.0,10,0.00,,,0.00,Weather View 32 v70,2013-05-05 03:49:00,
2013-05-04 21:54:00,65.0,7.0,29.90,SE,135,12.0,24.0,10,0.00,,,0.00,Weather View 32 v70,2013-05-05 03:54:00,
2013-05-04 21:59:00,65.0,7.0,29.91,SE,135,12.0,24.0,10,0.00,,,0.00,Weather View 32 v70,2013-05-05 03:59:00,
2013-05-04 22:01:00,65.0,9.1,29.91,SSE,157,13.0,24.0,11,0.00,,,0.00,Weather View 32 v70,2013-05-05 04:01:00,
2013-05-04 22:06:00,65.0,9.1,29.91,SSE,157,19.0,24.0,11,0.00,,,0.00,Weather View 32 v70,2013-05-05 04:06:00,
2013-05-04 22:11:00,65.0,9.1,29.92,SE,135,8.0,24.0,11,0.00,,,0.00,Weather View 32 v70,2013-05-05 04:11:00,
2013-05-04 22:16:00,65.0,9.1,29.92,South,180,12.0,24.0,11,0.00,,,0.00,Weather View 32 v70,2013-05-05 04:16:00,
2013-05-04 22:21:00,65.0,9.1,29.91,SE,135,13.0,24.0,11,0.00,,,0.00,Weather View 32 v70,2013-05-05 04:21:00,
2013-05-04 22:26:00,65.0,9.1,29.91,SE,135,15.0,24.0,11,0.00,,,0.00,Weather View 32 v70,2013-05-05 04:26:00,
2013-05-04 22:31:00,65.0,9.1,29.92,SE,135,8.0,24.0,11,0.00,,,0.00,Weather View 32 v70,2013-05-05 04:31:00,
2013-05-04 22:36:00,65.0,9.1,29.92,SSE,157,13.0,24.0,11,0.00,,,0.00,Weather View 32 v70,2013-05-05 04:36:00,
2013-05-04 22:41:00,64.0,8.3,29.92,South,180,14.0,24.0,11,0.00,,,0.00,Weather View 32 v70,2013-05-05 04:41:00,
2013-05-04 22:46:00,65.0,7.0,29.92,SE,135,15.0,24.0,10,0.00,,,0.00,Weather View 32 v70,2013-05-05 04:46:00,
2013-05-04 22:51:00,65.0,7.0,29.92,SE,135,18.0,25.0,10,0.00,,,0.00,Weather View 32 v70,2013-05-05 04:51:00,
2013-05-04 22:56:00,64.0,6.2,29.92,SE,135,15.0,31.0,10,0.00,,,0.00,Weather View 32 v70,2013-05-05 04:56:00,
2013-05-04 23:01:00,64.0,8.3,29.93,SSE,157,10.0,31.0,11,0.00,,,0.00,Weather View 32 v70,2013-05-05 05:01:00,
2013-05-04 23:06:00,64.0,8.3,29.93,SE,135,12.0,31.0,11,0.00,,,0.00,Weather View 32 v70,2013-05-05 05:06:00,
2013-05-04 23:11:00,63.0,7.6,29.92,SSE,157,14.0,31.0,11,0.00,,,0.00,Weather View 32 v70,2013-05-05 05:11:00,
2013-05-04 23:16:00,63.0,7.6,29.92,SE,135,13.0,31.0,11,0.00,,,0.00,Weather View 32 v70,2013-05-05 05:16:00,
2013-05-04 23:21:00,62.0,4.7,29.93,ESE,112,11.0,31.0,10,0.00,,,0.00,Weather View 32 v70,2013-05-05 05:21:00,
2013-05-04 23:26:00,62.0,4.7,29.93,SE,135,16.0,31.0,10,0.00,,,0.00,Weather View 32 v70,2013-05-05 05:26:00,
2013-05-04 23:31:00,62.0,4.7,29.93,NE,45,9.0,31.0,10,0.00,,,0.00,Weather View 32 v70,2013-05-05 05:31:00,
2013-05-04 23:36:00,62.0,4.7,29.93,SE,135,15.0,35.0,10,0.00,,,0.00,Weather View 32 v70,2013-05-05 05:36:00,
2013-05-04 23:41:00,61.0,6.0,29.93,SE,135,17.0,35.0,11,0.00,,,0.00,Weather View 32 v70,2013-05-05 05:41:00,
2013-05-04 23:48:00,61.0,6.0,29.93,SSE,157,15.0,35.0,11,0.00,,,0.00,Weather View 32 v70,2013-05-05 05:48:00,
2013-05-04 23:53:00,61.0,6.0,29.94,SE,135,13.0,35.0,11,0.00,,,0.00,Weather View 32 v70,2013-05-05 05:53:00,
2013-05-04 23:58:00,60.0,7.1,29.94,South,180,9.0,35.0,12,0.00,,,0.00,Weather View 32 v70,2013-05-05 05:58:00,